KLEW/LEW METAR and TAF weather

Enter ICAO airport designator
Station Type Date Time Source
KLEW METAR 2021/09/27 05:56 UTC NOAA

KLEW 270556Z AUTO 15003KT 10SM CLR 08/08 A2985 RMK AO2 SLP113 T00830083 10133 20078 53011


Station Type Date Time Source
KLEW Decoded METAR 2021/09/27 05:56 UTC NOAA

Auburn-Lewiston, ME, United States (KLEW) 44-03N 070-17W
Sep 27, 2021 - 01:56 AM EDT / 2021.09.27 0556 UTC
Wind: from the SSE (150 degrees) at 3 MPH (3 KT):0
Visibility: 10 mile(s):0
Sky conditions: clear
Temperature: 46.9 F (8.3 C)
Dew Point: 46.9 F (8.3 C)
Relative Humidity: 100%
Pressure (altimeter): 29.85 in. Hg (1010 hPa)
Pressure tendency: 0.03 inches (1.1 hPa) higher than three hours ago
ob: KLEW 270556Z AUTO 15003KT 10SM CLR 08/08 A2985 RMK AO2 SLP113 T00830083 10133 20078 53011
cycle: 6

Station Type Date Time Source
KLEW TAF UTC NOAA

Error!

Example: see airport list